sensor_id;sensor_type;location;lat;lon;timestamp;P1;P2;P0
50787;PMS5003;36756;50.846;20.632;2022-07-01T00:00:17;25;25;18
50787;PMS5003;36756;50.846;20.632;2022-07-01T00:07:03;30;29;20
50787;PMS5003;36756;50.846;20.632;2022-07-01T00:14:02;30;29;20
50787;PMS5003;36756;50.846;20.632;2022-07-01T00:21:04;30;29;20
50787;PMS5003;36756;50.846;20.632;2022-07-01T00:28:17;30;29;20
50787;PMS5003;36756;50.846;20.632;2022-07-01T00:35:16;33;28;19
50787;PMS5003;36756;50.846;20.632;2022-07-01T00:42:18;33;28;19
50787;PMS5003;36756;50.846;20.632;2022-07-01T00:49:05;33;28;19
50787;PMS5003;36756;50.846;20.632;2022-07-01T00:56:21;33;28;19
50787;PMS5003;36756;50.846;20.632;2022-07-01T01:00:01;33;28;19
50787;PMS5003;36756;50.846;20.632;2022-07-01T01:07:16;29;27;21
50787;PMS5003;36756;50.846;20.632;2022-07-01T01:14:06;29;27;21
50787;PMS5003;36756;50.846;20.632;2022-07-01T01:21:21;29;27;21
50787;PMS5003;36756;50.846;20.632;2022-07-01T01:28:17;29;27;21
50787;PMS5003;36756;50.846;20.632;2022-07-01T01:42:15;33;30;21
50787;PMS5003;36756;50.846;20.632;2022-07-01T01:49:21;33;30;21
50787;PMS5003;36756;50.846;20.632;2022-07-01T01:56:17;33;30;21
50787;PMS5003;36756;50.846;20.632;2022-07-01T02:00:24;33;30;21
50787;PMS5003;36756;50.846;20.632;2022-07-01T02:07:18;30;26;18
50787;PMS5003;36756;50.846;20.632;2022-07-01T02:14:03;30;26;18
50787;PMS5003;36756;50.846;20.632;2022-07-01T02:21:17;30;26;18
50787;PMS5003;36756;50.846;20.632;2022-07-01T02:28:03;30;26;18
50787;PMS5003;36756;50.846;20.632;2022-07-01T02:35:19;33;30;21
50787;PMS5003;36756;50.846;20.632;2022-07-01T02:42:02;33;30;21
50787;PMS5003;36756;50.846;20.632;2022-07-01T02:49:04;33;30;21
50787;PMS5003;36756;50.846;20.632;2022-07-01T02:56:04;33;30;21
50787;PMS5003;36756;50.846;20.632;2022-07-01T03:00:10;33;30;21
50787;PMS5003;36756;50.846;20.632;2022-07-01T03:07:19;34;30;22
50787;PMS5003;36756;50.846;20.632;2022-07-01T03:14:02;34;30;22
50787;PMS5003;36756;50.846;20.632;2022-07-01T03:21:04;34;30;22
50787;PMS5003;36756;50.846;20.632;2022-07-01T03:28:19;34;30;22
50787;PMS5003;36756;50.846;20.632;2022-07-01T03:35:49;29;28;19
50787;PMS5003;36756;50.846;20.632;2022-07-01T03:42:22;29;28;19
50787;PMS5003;36756;50.846;20.632;2022-07-01T03:49:18;29;28;19
50787;PMS5003;36756;50.846;20.632;2022-07-01T03:56:15;29;28;19
50787;PMS5003;36756;50.846;20.632;2022-07-01T04:00:20;29;28;19
50787;PMS5003;36756;50.846;20.632;2022-07-01T04:07:25;38;32;22
50787;PMS5003;36756;50.846;20.632;2022-07-01T04:14:05;38;32;22
50787;PMS5003;36756;50.846;20.632;2022-07-01T04:28:06;38;32;22
50787;PMS5003;36756;50.846;20.632;2022-07-01T04:35:18;31;29;20
50787;PMS5003;36756;50.846;20.632;2022-07-01T04:42:06;31;29;20
50787;PMS5003;36756;50.846;20.632;2022-07-01T04:49:18;31;29;20
50787;PMS5003;36756;50.846;20.632;2022-07-01T04:56:15;31;29;20
50787;PMS5003;36756;50.846;20.632;2022-07-01T05:00:01;31;29;20
50787;PMS5003;36756;50.846;20.632;2022-07-01T05:07:14;31;29;20
50787;PMS5003;36756;50.846;20.632;2022-07-01T05:14:13;31;29;20
50787;PMS5003;36756;50.846;20.632;2022-07-01T05:28:02;31;29;20
50787;PMS5003;36756;50.846;20.632;2022-07-01T05:35:19;29;27;18
50787;PMS5003;36756;50.846;20.632;2022-07-01T05:42:17;29;27;18
50787;PMS5003;36756;50.846;20.632;2022-07-01T05:49:01;29;27;18
50787;PMS5003;36756;50.846;20.632;2022-07-01T05:56:15;29;27;18
50787;PMS5003;36756;50.846;20.632;2022-07-01T06:00:13;29;27;18
50787;PMS5003;36756;50.846;20.632;2022-07-01T06:07:02;44;36;25
50787;PMS5003;36756;50.846;20.632;2022-07-01T06:14:15;44;36;25
50787;PMS5003;36756;50.846;20.632;2022-07-01T06:21:16;44;36;25
50787;PMS5003;36756;50.846;20.632;2022-07-01T06:28:05;44;36;25
50787;PMS5003;36756;50.846;20.632;2022-07-01T06:35:14;27;26;18
50787;PMS5003;36756;50.846;20.632;2022-07-01T06:42:18;27;26;18
50787;PMS5003;36756;50.846;20.632;2022-07-01T06:49:04;27;26;18
50787;PMS5003;36756;50.846;20.632;2022-07-01T06:56:03;27;26;18
50787;PMS5003;36756;50.846;20.632;2022-07-01T07:00:07;27;26;18
50787;PMS5003;36756;50.846;20.632;2022-07-01T07:07:03;29;28;17
50787;PMS5003;36756;50.846;20.632;2022-07-01T07:14:16;29;28;17
50787;PMS5003;36756;50.846;20.632;2022-07-01T07:21:04;29;28;17
50787;PMS5003;36756;50.846;20.632;2022-07-01T07:28:04;29;28;17
50787;PMS5003;36756;50.846;20.632;2022-07-01T07:35:19;21;20;14
50787;PMS5003;36756;50.846;20.632;2022-07-01T07:42:15;21;20;14
50787;PMS5003;36756;50.846;20.632;2022-07-01T07:49:21;21;20;14
50787;PMS5003;36756;50.846;20.632;2022-07-01T07:56:02;21;20;14
50787;PMS5003;36756;50.846;20.632;2022-07-01T08:00:21;21;20;14
50787;PMS5003;36756;50.846;20.632;2022-07-01T08:07:02;22;22;16
50787;PMS5003;36756;50.846;20.632;2022-07-01T08:14:03;22;22;16
50787;PMS5003;36756;50.846;20.632;2022-07-01T08:21:04;22;22;16
50787;PMS5003;36756;50.846;20.632;2022-07-01T08:28:18;22;22;16
50787;PMS5003;36756;50.846;20.632;2022-07-01T08:42:04;21;19;14
50787;PMS5003;36756;50.846;20.632;2022-07-01T08:49:24;21;19;14
50787;PMS5003;36756;50.846;20.632;2022-07-01T09:00:04;21;19;14
50787;PMS5003;36756;50.846;20.632;2022-07-01T09:14:34;18;17;13
50787;PMS5003;36756;50.846;20.632;2022-07-01T09:21:08;18;17;13
50787;PMS5003;36756;50.846;20.632;2022-07-01T09:28:13;18;17;13
50787;PMS5003;36756;50.846;20.632;2022-07-01T09:35:06;18;17;13
50787;PMS5003;36756;50.846;20.632;2022-07-01T09:42:07;21;19;16
50787;PMS5003;36756;50.846;20.632;2022-07-01T09:49:21;21;19;16
50787;PMS5003;36756;50.846;20.632;2022-07-01T09:56:03;21;19;16
50787;PMS5003;36756;50.846;20.632;2022-07-01T10:00:10;21;19;16
50787;PMS5003;36756;50.846;20.632;2022-07-01T10:14:07;20;20;14
50787;PMS5003;36756;50.846;20.632;2022-07-01T10:21:32;20;20;14
50787;PMS5003;36756;50.846;20.632;2022-07-01T10:42:21;17;17;14
50787;PMS5003;36756;50.846;20.632;2022-07-01T10:56:04;17;17;14
50787;PMS5003;36756;50.846;20.632;2022-07-01T11:00:36;17;17;14
50787;PMS5003;36756;50.846;20.632;2022-07-01T11:14:02;20;20;15
50787;PMS5003;36756;50.846;20.632;2022-07-01T11:21:14;20;20;15
50787;PMS5003;36756;50.846;20.632;2022-07-01T11:28:17;20;20;15
50787;PMS5003;36756;50.846;20.632;2022-07-01T11:42:08;24;22;15
50787;PMS5003;36756;50.846;20.632;2022-07-01T11:49:02;24;22;15
50787;PMS5003;36756;50.846;20.632;2022-07-01T11:56:16;24;22;15
50787;PMS5003;36756;50.846;20.632;2022-07-01T12:00:12;24;22;15
50787;PMS5003;36756;50.846;20.632;2022-07-01T12:14:20;24;20;16
50787;PMS5003;36756;50.846;20.632;2022-07-01T12:21:05;24;20;16
50787;PMS5003;36756;50.846;20.632;2022-07-01T12:28:02;24;20;16
50787;PMS5003;36756;50.846;20.632;2022-07-01T12:35:43;24;20;16
50787;PMS5003;36756;50.846;20.632;2022-07-01T12:42:05;19;18;13
50787;PMS5003;36756;50.846;20.632;2022-07-01T12:49:01;19;18;13
50787;PMS5003;36756;50.846;20.632;2022-07-01T12:56:28;19;18;13
50787;PMS5003;36756;50.846;20.632;2022-07-01T13:00:05;19;18;13
50787;PMS5003;36756;50.846;20.632;2022-07-01T13:14:17;21;20;15
50787;PMS5003;36756;50.846;20.632;2022-07-01T13:21:01;21;20;15
50787;PMS5003;36756;50.846;20.632;2022-07-01T13:28:07;21;20;15
50787;PMS5003;36756;50.846;20.632;2022-07-01T13:35:17;21;20;15
50787;PMS5003;36756;50.846;20.632;2022-07-01T13:42:09;17;17;13
50787;PMS5003;36756;50.846;20.632;2022-07-01T13:49:19;17;17;13
50787;PMS5003;36756;50.846;20.632;2022-07-01T13:56:14;17;17;13
50787;PMS5003;36756;50.846;20.632;2022-07-01T14:00:01;17;17;13
50787;PMS5003;36756;50.846;20.632;2022-07-01T14:07:17;17;17;13
50787;PMS5003;36756;50.846;20.632;2022-07-01T14:14:05;21;20;16
50787;PMS5003;36756;50.846;20.632;2022-07-01T14:21:21;21;20;16
50787;PMS5003;36756;50.846;20.632;2022-07-01T14:28:02;21;20;16
50787;PMS5003;36756;50.846;20.632;2022-07-01T14:35:15;21;20;16
50787;PMS5003;36756;50.846;20.632;2022-07-01T14:42:17;16;16;13
50787;PMS5003;36756;50.846;20.632;2022-07-01T14:49:19;16;16;13
50787;PMS5003;36756;50.846;20.632;2022-07-01T14:56:15;16;16;13
50787;PMS5003;36756;50.846;20.632;2022-07-01T15:00:18;16;16;13
50787;PMS5003;36756;50.846;20.632;2022-07-01T15:07:15;16;16;13
50787;PMS5003;36756;50.846;20.632;2022-07-01T15:14:17;22;21;15
50787;PMS5003;36756;50.846;20.632;2022-07-01T15:21:03;22;21;15
50787;PMS5003;36756;50.846;20.632;2022-07-01T15:28:16;22;21;15
50787;PMS5003;36756;50.846;20.632;2022-07-01T15:35:09;22;21;15
50787;PMS5003;36756;50.846;20.632;2022-07-01T15:42:17;21;18;14
50787;PMS5003;36756;50.846;20.632;2022-07-01T15:49:23;21;18;14
50787;PMS5003;36756;50.846;20.632;2022-07-01T15:56:03;21;18;14
50787;PMS5003;36756;50.846;20.632;2022-07-01T16:00:18;21;18;14
50787;PMS5003;36756;50.846;20.632;2022-07-01T16:07:14;21;18;14
50787;PMS5003;36756;50.846;20.632;2022-07-01T16:14:22;22;20;15
50787;PMS5003;36756;50.846;20.632;2022-07-01T16:21:04;22;20;15
50787;PMS5003;36756;50.846;20.632;2022-07-01T16:28:22;22;20;15
50787;PMS5003;36756;50.846;20.632;2022-07-01T16:35:15;22;20;15
50787;PMS5003;36756;50.846;20.632;2022-07-01T16:42:32;21;19;14
50787;PMS5003;36756;50.846;20.632;2022-07-01T16:49:26;21;19;14
50787;PMS5003;36756;50.846;20.632;2022-07-01T16:56:04;21;19;14
50787;PMS5003;36756;50.846;20.632;2022-07-01T17:00:25;21;19;14
50787;PMS5003;36756;50.846;20.632;2022-07-01T17:07:03;21;19;14
50787;PMS5003;36756;50.846;20.632;2022-07-01T17:14:02;22;21;16
50787;PMS5003;36756;50.846;20.632;2022-07-01T17:21:18;22;21;16
50787;PMS5003;36756;50.846;20.632;2022-07-01T17:35:20;22;21;16
50787;PMS5003;36756;50.846;20.632;2022-07-01T17:42:20;23;22;16
50787;PMS5003;36756;50.846;20.632;2022-07-01T17:49:38;23;22;16
50787;PMS5003;36756;50.846;20.632;2022-07-01T17:56:12;23;22;16
50787;PMS5003;36756;50.846;20.632;2022-07-01T18:00:17;23;22;16
50787;PMS5003;36756;50.846;20.632;2022-07-01T18:07:04;23;22;16
50787;PMS5003;36756;50.846;20.632;2022-07-01T18:14:35;15;15;12
50787;PMS5003;36756;50.846;20.632;2022-07-01T18:21:03;15;15;12
50787;PMS5003;36756;50.846;20.632;2022-07-01T18:28:15;15;15;12
50787;PMS5003;36756;50.846;20.632;2022-07-01T18:35:02;15;15;12
50787;PMS5003;36756;50.846;20.632;2022-07-01T18:49:19;21;20;16
50787;PMS5003;36756;50.846;20.632;2022-07-01T18:56:05;21;20;16
50787;PMS5003;36756;50.846;20.632;2022-07-01T19:00:31;21;20;16
50787;PMS5003;36756;50.846;20.632;2022-07-01T19:07:03;21;20;16
50787;PMS5003;36756;50.846;20.632;2022-07-01T19:21:13;23;22;16
50787;PMS5003;36756;50.846;20.632;2022-07-01T19:28:18;23;22;16
50787;PMS5003;36756;50.846;20.632;2022-07-01T19:35:09;23;22;16
50787;PMS5003;36756;50.846;20.632;2022-07-01T19:49:06;10;10;8
50787;PMS5003;36756;50.846;20.632;2022-07-01T19:56:05;10;10;8
50787;PMS5003;36756;50.846;20.632;2022-07-01T20:00:22;10;10;8
50787;PMS5003;36756;50.846;20.632;2022-07-01T20:07:14;10;10;8
50787;PMS5003;36756;50.846;20.632;2022-07-01T20:21:04;11;11;9
50787;PMS5003;36756;50.846;20.632;2022-07-01T20:28:19;11;11;9
50787;PMS5003;36756;50.846;20.632;2022-07-01T20:35:02;11;11;9
50787;PMS5003;36756;50.846;20.632;2022-07-01T20:49:03;11;9;7
50787;PMS5003;36756;50.846;20.632;2022-07-01T20:56:17;11;9;7
50787;PMS5003;36756;50.846;20.632;2022-07-01T21:00:01;11;9;7
50787;PMS5003;36756;50.846;20.632;2022-07-01T21:07:15;11;9;7
50787;PMS5003;36756;50.846;20.632;2022-07-01T21:21:03;20;19;13
50787;PMS5003;36756;50.846;20.632;2022-07-01T21:28:04;20;19;13
50787;PMS5003;36756;50.846;20.632;2022-07-01T21:35:07;20;19;13
50787;PMS5003;36756;50.846;20.632;2022-07-01T21:49:27;18;16;13
50787;PMS5003;36756;50.846;20.632;2022-07-01T21:56:03;18;16;13
50787;PMS5003;36756;50.846;20.632;2022-07-01T22:00:35;18;16;13
50787;PMS5003;36756;50.846;20.632;2022-07-01T22:07:01;18;16;13
50787;PMS5003;36756;50.846;20.632;2022-07-01T22:14:40;21;20;15
50787;PMS5003;36756;50.846;20.632;2022-07-01T22:21:27;21;20;15
50787;PMS5003;36756;50.846;20.632;2022-07-01T22:28:22;21;20;15
50787;PMS5003;36756;50.846;20.632;2022-07-01T22:42:19;25;23;15
50787;PMS5003;36756;50.846;20.632;2022-07-01T22:49:36;25;23;15
50787;PMS5003;36756;50.846;20.632;2022-07-01T22:56:27;25;23;15
50787;PMS5003;36756;50.846;20.632;2022-07-01T23:07:23;36;31;19
50787;PMS5003;36756;50.846;20.632;2022-07-01T23:14:03;36;31;19
50787;PMS5003;36756;50.846;20.632;2022-07-01T23:21:03;36;31;19
50787;PMS5003;36756;50.846;20.632;2022-07-01T23:28:05;36;31;19
50787;PMS5003;36756;50.846;20.632;2022-07-01T23:35:24;25;22;18
50787;PMS5003;36756;50.846;20.632;2022-07-01T23:42:08;25;22;18
50787;PMS5003;36756;50.846;20.632;2022-07-01T23:49:20;25;22;18
50787;PMS5003;36756;50.846;20.632;2022-07-01T23:56:06;25;22;18
